createdAt,value
2023-09-04T00:02:20.595Z,87.44
2023-09-04T00:04:52.279Z,87.45
2023-09-04T00:07:24.066Z,87.48
2023-09-04T00:09:55.921Z,87.12
2023-09-04T00:12:27.523Z,87.33
2023-09-04T00:14:59.330Z,87.74
2023-09-04T00:17:30.839Z,87.58
2023-09-04T00:20:02.379Z,87.73
2023-09-04T00:22:33.921Z,88.04
2023-09-04T00:25:05.423Z,87.72
2023-09-04T00:27:36.923Z,88.43
2023-09-04T00:30:08.430Z,88.44
2023-09-04T00:32:39.957Z,88.42
2023-09-04T00:35:11.993Z,88.39
2023-09-04T00:37:43.498Z,88.10
2023-09-04T00:40:15.038Z,87.93
2023-09-04T00:42:46.887Z,88.16
2023-09-04T00:45:18.367Z,88.28
2023-09-04T00:47:50.195Z,87.86
2023-09-04T00:50:21.711Z,88.43
2023-09-04T00:52:53.527Z,88.93
2023-09-04T00:55:25.055Z,88.89
2023-09-04T00:57:56.803Z,88.79
2023-09-04T01:00:28.296Z,88.83
2023-09-04T01:03:00.038Z,89.08
2023-09-04T01:05:31.532Z,89.15
2023-09-04T01:08:03.116Z,89.71
2023-09-04T01:10:34.990Z,89.10
2023-09-04T01:13:06.474Z,89.42
2023-09-04T01:15:38.009Z,89.70
2023-09-04T01:18:09.583Z,89.86
2023-09-04T01:20:41.474Z,89.72
2023-09-04T01:23:12.951Z,89.57
2023-09-04T01:25:44.785Z,89.85
2023-09-04T01:28:16.303Z,90.36
2023-09-04T01:30:48.163Z,90.28
2023-09-04T01:33:19.655Z,90.30
2023-09-04T01:35:51.473Z,90.20
2023-09-04T01:38:23.426Z,90.38
2023-09-04T01:40:55.179Z,90.38
2023-09-04T01:43:26.995Z,90.67
2023-09-04T01:45:58.527Z,89.97
2023-09-04T01:48:30.346Z,90.32
2023-09-04T01:51:01.849Z,90.44
2023-09-04T01:53:33.687Z,90.39
2023-09-04T01:56:05.208Z,90.37
2023-09-04T01:58:37.053Z,90.47
2023-09-04T02:01:08.545Z,90.15
2023-09-04T02:03:40.574Z,90.28
2023-09-04T02:06:12.174Z,90.66
2023-09-04T02:08:43.994Z,91.23
2023-09-04T02:11:15.764Z,90.98
2023-09-04T02:13:47.269Z,91.50
2023-09-04T02:16:19.106Z,91.43
2023-09-04T02:18:50.672Z,91.37
2023-09-04T02:21:22.415Z,91.71
2023-09-04T02:23:53.914Z,92.20
2023-09-04T02:26:25.841Z,92.57
2023-09-04T02:28:57.350Z,92.55
2023-09-04T02:31:29.261Z,92.71
2023-09-04T02:34:00.791Z,92.77
2023-09-04T02:36:32.587Z,92.55
2023-09-04T02:39:04.093Z,93.31
2023-09-04T02:41:35.935Z,92.63
2023-09-04T02:44:07.448Z,93.04
2023-09-04T02:46:38.953Z,92.87
2023-09-04T02:49:10.804Z,93.11
2023-09-04T02:51:42.296Z,93.50
2023-09-04T02:54:13.961Z,93.15
2023-09-04T02:56:45.452Z,92.65
2023-09-04T02:59:17.213Z,92.71
2023-09-04T03:01:48.712Z,92.07
2023-09-04T03:04:20.392Z,92.52
2023-09-04T03:06:51.883Z,92.45
2023-09-04T03:09:23.378Z,92.77
2023-09-04T03:11:55.180Z,92.83
2023-09-04T03:14:26.997Z,91.95
2023-09-04T03:16:58.500Z,91.63
2023-09-04T03:19:29.994Z,91.70
2023-09-04T03:22:01.506Z,91.85
2023-09-04T03:24:33.131Z,92.54
2023-09-04T03:27:04.617Z,93.83
2023-09-04T03:29:36.096Z,93.10
2023-09-04T03:32:07.871Z,93.27
2023-09-04T03:34:39.361Z,93.82
2023-09-04T03:37:11.160Z,93.66
2023-09-04T03:39:42.680Z,93.79
2023-09-04T03:42:14.452Z,93.81
2023-09-04T03:44:46.111Z,93.14
2023-09-04T03:47:17.607Z,93.38
2023-09-04T03:49:49.360Z,92.21
2023-09-04T03:52:20.834Z,92.78
2023-09-04T03:54:52.671Z,93.60
2023-09-04T03:57:24.157Z,93.91
2023-09-04T03:59:56.006Z,93.89
2023-09-04T04:02:27.486Z,95.26
2023-09-04T04:04:59.127Z,94.55
2023-09-04T04:07:30.629Z,94.53
2023-09-04T04:10:02.410Z,94.99
2023-09-04T04:12:33.906Z,94.47
2023-09-04T04:15:05.420Z,93.94
2023-09-04T04:17:37.390Z,93.31
2023-09-04T04:20:08.921Z,93.89
2023-09-04T04:22:40.701Z,93.96
2023-09-04T04:25:12.172Z,94.24
2023-09-04T04:27:43.649Z,94.52
2023-09-04T04:30:15.116Z,94.26
2023-09-04T04:32:46.657Z,94.32
2023-09-04T04:35:18.182Z,94.27
2023-09-04T04:37:49.677Z,94.13
2023-09-04T04:40:21.180Z,93.50
2023-09-04T04:42:52.688Z,93.58
2023-09-04T04:45:24.195Z,94.37
2023-09-04T04:47:55.777Z,94.03
2023-09-04T04:50:27.324Z,93.70
2023-09-04T04:52:58.802Z,93.49
2023-09-04T04:55:30.428Z,93.38
2023-09-04T04:58:01.996Z,93.33
2023-09-04T05:00:33.517Z,92.92
2023-09-04T05:03:05.060Z,92.45
2023-09-04T05:05:36.620Z,92.41
2023-09-04T05:08:08.127Z,91.85
2023-09-04T05:10:39.908Z,92.35
2023-09-04T05:13:11.808Z,92.02
2023-09-04T05:15:43.358Z,91.42
2023-09-04T05:18:15.214Z,91.17
2023-09-04T05:20:46.697Z,90.65
2023-09-04T05:23:18.392Z,90.27
2023-09-04T05:25:49.920Z,89.82
2023-09-04T05:28:22.042Z,89.17
2023-09-04T05:30:53.910Z,88.83
2023-09-04T05:33:25.789Z,88.90
2023-09-04T05:35:57.280Z,88.58
2023-09-04T05:38:28.787Z,87.75
2023-09-04T05:41:00.770Z,87.18
2023-09-04T05:43:32.544Z,86.44
2023-09-04T05:46:04.053Z,85.62
2023-09-04T05:48:35.534Z,84.94
2023-09-04T05:51:07.100Z,84.60
2023-09-04T05:53:38.614Z,84.06
2023-09-04T05:56:10.143Z,83.10
2023-09-04T05:58:41.622Z,82.57
2023-09-04T06:01:13.208Z,81.69
2023-09-04T06:03:44.747Z,81.21
2023-09-04T06:06:16.535Z,81.14
2023-09-04T06:08:48.026Z,80.67
2023-09-04T06:11:19.876Z,79.79
2023-09-04T06:13:51.401Z,79.04
2023-09-04T06:16:22.893Z,78.54
2023-09-04T06:18:54.477Z,78.03
2023-09-04T06:21:25.990Z,77.24
2023-09-04T06:23:57.994Z,76.57
2023-09-04T06:26:29.509Z,76.11
2023-09-04T06:29:01.295Z,75.46
2023-09-04T06:31:32.824Z,74.61
2023-09-04T06:34:04.361Z,74.16
2023-09-04T06:36:35.844Z,73.24
2023-09-04T06:39:07.390Z,72.12
2023-09-04T06:41:39.291Z,71.73
2023-09-04T06:44:10.780Z,71.41
2023-09-04T06:46:42.526Z,71.58
2023-09-04T06:49:14.042Z,71.36
2023-09-04T06:51:45.969Z,69.84
2023-09-04T06:54:17.478Z,69.53
2023-09-04T06:56:49.224Z,68.15
2023-09-04T06:59:20.715Z,67.53
2023-09-04T07:01:52.560Z,67.10
2023-09-04T07:04:24.062Z,67.22
2023-09-04T07:06:55.581Z,66.47
2023-09-04T07:09:27.057Z,66.78
2023-09-04T07:11:58.902Z,67.23
2023-09-04T07:14:30.541Z,66.52
2023-09-04T07:17:08.808Z,65.22
2023-09-04T07:19:42.620Z,64.45
2023-09-04T07:22:15.083Z,63.12
2023-09-04T07:24:46.967Z,63.22
2023-09-04T07:27:18.454Z,63.18
2023-09-04T07:29:50.187Z,63.53
2023-09-04T07:32:21.671Z,61.35
2023-09-04T07:34:53.542Z,60.88
2023-09-04T07:37:25.022Z,61.09
2023-09-04T07:39:56.768Z,60.52
2023-09-04T07:42:28.528Z,60.54
2023-09-04T07:45:00.045Z,58.70
2023-09-04T07:47:31.774Z,58.65
2023-09-04T07:50:03.274Z,58.04
2023-09-04T07:52:35.092Z,58.27
2023-09-04T07:55:06.582Z,56.54
2023-09-04T07:57:38.095Z,56.42
2023-09-04T08:00:09.580Z,56.07
2023-09-04T08:02:41.146Z,56.59
2023-09-04T08:05:12.655Z,55.07
2023-09-04T08:07:44.218Z,53.68
2023-09-04T08:10:16.075Z,51.53
2023-09-04T08:12:47.591Z,52.14
2023-09-04T08:15:19.422Z,52.51
2023-09-04T08:17:50.969Z,50.68
2023-09-04T08:20:22.866Z,50.28
2023-09-04T08:22:54.370Z,50.17
2023-09-04T08:25:26.144Z,50.82
2023-09-04T08:27:57.644Z,49.10
2023-09-04T08:30:30.746Z,48.87
2023-09-04T08:33:02.315Z,49.27
2023-09-04T08:35:34.143Z,49.30
2023-09-04T08:38:05.650Z,48.27
2023-09-04T08:40:37.513Z,48.49
2023-09-04T08:43:09.013Z,48.42
2023-09-04T08:45:40.507Z,48.06
2023-09-04T08:48:12.336Z,48.71
2023-09-04T08:50:43.817Z,47.69
2023-09-04T08:53:15.648Z,48.62
2023-09-04T08:55:47.157Z,47.24
2023-09-04T08:58:19.015Z,47.53
2023-09-04T09:00:50.542Z,46.91
2023-09-04T09:03:22.411Z,44.42
2023-09-04T09:05:54.273Z,44.23
2023-09-04T09:08:25.814Z,46.51
2023-09-04T09:10:57.397Z,44.46
2023-09-04T09:13:28.876Z,43.14
2023-09-04T09:16:00.791Z,46.17
2023-09-04T09:18:32.304Z,47.21
2023-09-04T09:21:03.786Z,45.86
2023-09-04T09:23:35.282Z,44.61
2023-09-04T09:26:06.822Z,45.64
2023-09-04T09:28:38.357Z,43.62
2023-09-04T09:31:09.864Z,43.65
2023-09-04T09:33:41.720Z,44.06
2023-09-04T09:36:13.720Z,43.28
2023-09-04T09:38:45.211Z,42.62
2023-09-04T09:41:16.685Z,43.55
2023-09-04T09:43:48.661Z,42.84
2023-09-04T09:46:20.186Z,42.44
2023-09-04T09:48:51.724Z,43.55
2023-09-04T09:51:23.209Z,44.56
2023-09-04T09:53:55.159Z,43.62
2023-09-04T09:56:26.647Z,41.68
2023-09-04T09:58:58.459Z,41.97
2023-09-04T10:01:30.343Z,41.01
2023-09-04T10:04:01.900Z,41.01
2023-09-04T10:06:33.813Z,41.71
2023-09-04T10:09:05.294Z,39.86
2023-09-04T10:11:37.122Z,41.05
2023-09-04T10:14:08.628Z,41.35
2023-09-04T10:16:40.516Z,40.21
2023-09-04T10:19:12.040Z,39.51
2023-09-04T10:21:43.941Z,38.75
2023-09-04T10:24:15.468Z,40.31
2023-09-04T10:26:47.000Z,41.13
2023-09-04T10:29:18.833Z,40.72
2023-09-04T10:31:50.642Z,40.28
2023-09-04T10:34:22.586Z,39.78
2023-09-04T10:36:54.118Z,38.81
2023-09-04T10:39:25.814Z,39.25
2023-09-04T10:41:57.346Z,39.01
2023-09-04T10:44:29.259Z,38.94
2023-09-04T10:47:00.824Z,38.90
2023-09-04T10:49:32.954Z,38.65
2023-09-04T10:52:04.458Z,38.60
2023-09-04T10:54:36.323Z,41.73
2023-09-04T10:57:07.907Z,41.45
2023-09-04T10:59:39.702Z,41.29
2023-09-04T11:02:11.443Z,39.38
2023-09-04T11:04:42.999Z,39.62
2023-09-04T11:07:15.096Z,38.32
2023-09-04T11:09:46.588Z,38.39
2023-09-04T11:12:18.130Z,38.73
2023-09-04T11:14:49.643Z,39.30
2023-09-04T11:17:21.201Z,38.65
2023-09-04T11:19:52.742Z,39.43
2023-09-04T11:22:24.701Z,41.04
2023-09-04T11:24:56.246Z,41.17
2023-09-04T11:27:28.118Z,40.20
2023-09-04T11:29:59.855Z,39.93
2023-09-04T11:32:31.502Z,39.34
2023-09-04T11:35:03.153Z,39.04
2023-09-04T11:37:34.702Z,40.13
2023-09-04T11:40:06.288Z,40.27
2023-09-04T11:42:38.251Z,39.74
2023-09-04T11:45:09.831Z,40.51
2023-09-04T11:47:42.439Z,39.08
2023-09-04T11:50:15.380Z,39.68
2023-09-04T11:52:47.040Z,39.55
2023-09-04T11:55:18.594Z,38.94
2023-09-04T11:57:50.493Z,38.59
2023-09-04T12:00:22.021Z,38.83
2023-09-04T12:02:53.913Z,37.92
2023-09-04T12:05:25.649Z,39.22
2023-09-04T12:07:57.746Z,38.86
2023-09-04T12:10:29.263Z,39.54
2023-09-04T12:13:00.780Z,38.29
2023-09-04T12:15:32.294Z,38.65
2023-09-04T12:18:03.898Z,38.51
2023-09-04T12:20:35.427Z,39.32
2023-09-04T12:23:07.024Z,38.92
2023-09-04T12:25:38.988Z,38.84
2023-09-04T12:28:10.783Z,39.04
2023-09-04T12:30:42.624Z,39.22
2023-09-04T12:33:14.138Z,39.51
2023-09-04T12:35:45.976Z,38.71
2023-09-04T12:38:17.482Z,38.59
2023-09-04T12:40:49.152Z,39.03
2023-09-04T12:43:20.829Z,41.34
2023-09-04T12:45:52.780Z,39.79
2023-09-04T12:48:24.313Z,38.94
2023-09-04T12:50:56.328Z,40.80
2023-09-04T12:53:28.224Z,38.66
2023-09-04T12:56:00.269Z,38.45
2023-09-04T12:58:32.273Z,38.74
2023-09-04T13:01:03.943Z,38.52
2023-09-04T13:03:35.842Z,39.28
2023-09-04T13:06:07.458Z,40.55
2023-09-04T13:08:39.306Z,38.50
2023-09-04T13:11:10.829Z,39.62
2023-09-04T13:13:42.706Z,38.79
2023-09-04T13:16:14.266Z,39.01
2023-09-04T13:18:46.101Z,39.12
2023-09-04T13:21:17.590Z,39.37
2023-09-04T13:23:49.292Z,38.55
2023-09-04T13:26:21.130Z,38.69
2023-09-04T13:28:53.098Z,39.54
2023-09-04T13:31:25.016Z,40.18
2023-09-04T13:33:56.560Z,40.10
2023-09-04T13:36:28.422Z,39.63
2023-09-04T13:38:59.924Z,40.50
2023-09-04T13:41:31.824Z,40.54
2023-09-04T13:44:03.321Z,40.68
2023-09-04T13:46:35.225Z,40.67
2023-09-04T13:49:06.797Z,40.34
2023-09-04T13:51:38.763Z,40.48
2023-09-04T13:54:10.410Z,38.45
2023-09-04T13:56:42.299Z,38.23
2023-09-04T13:59:13.996Z,39.55
2023-09-04T14:01:45.600Z,39.04
2023-09-04T14:04:17.412Z,39.41
2023-09-04T14:06:48.900Z,38.36
2023-09-04T14:09:20.700Z,38.54
2023-09-04T14:11:52.215Z,39.05
2023-09-04T14:14:24.017Z,37.69
2023-09-04T14:16:55.545Z,39.27
2023-09-04T14:19:27.413Z,37.96
2023-09-04T14:21:59.089Z,36.90
2023-09-04T14:24:30.942Z,36.46
2023-09-04T14:27:02.498Z,36.76
2023-09-04T14:29:34.033Z,36.00
2023-09-04T14:32:05.573Z,35.25
2023-09-04T14:34:37.109Z,36.27
2023-09-04T14:39:43.001Z,35.63
2023-09-04T14:42:14.802Z,35.02
2023-09-04T14:44:46.325Z,34.31
2023-09-04T14:47:18.205Z,34.20
2023-09-04T14:49:49.707Z,34.27
2023-09-04T14:52:21.579Z,34.08
2023-09-04T14:54:53.284Z,33.81
2023-09-04T14:57:24.807Z,33.44
2023-09-04T14:59:56.578Z,33.80
2023-09-04T15:02:28.125Z,33.08
2023-09-04T15:04:59.790Z,33.98
2023-09-04T15:07:31.304Z,33.94
2023-09-04T15:10:02.807Z,34.21
2023-09-04T15:12:34.288Z,33.41
2023-09-04T15:15:05.799Z,34.65
2023-09-04T15:17:37.330Z,34.09
2023-09-04T15:20:08.880Z,34.96
2023-09-04T15:22:40.382Z,34.68
2023-09-04T15:25:12.127Z,36.50
2023-09-04T15:27:43.665Z,35.60
2023-09-04T15:30:15.171Z,36.50
2023-09-04T15:32:47.067Z,35.89
2023-09-04T15:35:18.703Z,36.58
2023-09-04T15:37:50.568Z,38.61
2023-09-04T15:40:22.119Z,39.76
2023-09-04T15:42:54.005Z,40.46
2023-09-04T15:45:25.513Z,40.61
2023-09-04T15:47:57.508Z,41.03
2023-09-04T15:50:29.075Z,40.93
2023-09-04T15:53:00.937Z,41.35
2023-09-04T15:55:32.460Z,42.13
2023-09-04T15:58:04.007Z,43.03
2023-09-04T16:00:36.743Z,43.48
2023-09-04T16:03:08.744Z,43.31
2023-09-04T16:05:40.562Z,43.76
2023-09-04T16:08:12.086Z,44.19
2023-09-04T16:10:43.629Z,44.58
2023-09-04T16:13:15.214Z,43.59
2023-09-04T16:15:47.100Z,43.90
2023-09-04T16:18:18.632Z,44.12
2023-09-04T16:20:50.358Z,43.88
2023-09-04T16:23:21.904Z,43.32
2023-09-04T16:25:53.726Z,44.97
2023-09-04T16:28:25.547Z,43.84
2023-09-04T16:30:57.582Z,44.69
2023-09-04T16:33:29.467Z,43.77
2023-09-04T16:36:01.348Z,43.32
2023-09-04T16:38:34.334Z,44.13
2023-09-04T16:41:07.598Z,43.61
2023-09-04T16:43:39.449Z,44.18
2023-09-04T16:46:10.981Z,44.40
2023-09-04T16:48:42.934Z,43.71
2023-09-04T16:51:14.456Z,44.44
2023-09-04T16:53:45.985Z,44.70
2023-09-04T16:56:17.478Z,45.41
2023-09-04T16:58:49.159Z,44.75
2023-09-04T17:01:21.028Z,45.15
2023-09-04T17:03:52.983Z,44.86
2023-09-04T17:06:24.845Z,45.78
2023-09-04T17:08:56.344Z,45.85
2023-09-04T17:11:27.873Z,45.33
2023-09-04T17:13:59.360Z,45.32
2023-09-04T17:16:31.117Z,45.41
2023-09-04T17:19:02.709Z,45.73
2023-09-04T17:21:34.368Z,45.74
2023-09-04T17:24:05.856Z,45.78
2023-09-04T17:26:37.648Z,46.66
2023-09-04T17:29:09.126Z,46.53
2023-09-04T17:31:41.007Z,46.49
2023-09-04T17:34:12.783Z,46.89
2023-09-04T17:36:44.466Z,47.29
2023-09-04T17:39:16.255Z,47.49
2023-09-04T17:41:47.742Z,48.32
2023-09-04T17:44:19.923Z,48.34
2023-09-04T17:46:51.445Z,49.48
2023-09-04T17:49:23.074Z,50.06
2023-09-04T17:51:54.582Z,48.98
2023-09-04T17:54:26.373Z,49.09
2023-09-04T17:56:57.901Z,49.58
2023-09-04T17:59:29.422Z,50.22
2023-09-04T18:02:00.918Z,52.36
2023-09-04T18:04:32.799Z,52.87
2023-09-04T18:07:04.316Z,52.67
2023-09-04T18:09:36.176Z,52.56
2023-09-04T18:12:07.758Z,52.41
2023-09-04T18:14:39.288Z,53.60
2023-09-04T18:17:11.085Z,53.07
2023-09-04T18:22:14.156Z,55.27
2023-09-04T18:24:45.700Z,55.96
2023-09-04T18:27:17.590Z,54.93
2023-09-04T18:29:49.111Z,55.46
2023-09-04T18:32:20.744Z,56.60
2023-09-04T18:34:52.248Z,57.30
2023-09-04T18:37:23.774Z,56.70
2023-09-04T18:39:55.314Z,56.64
2023-09-04T18:42:27.213Z,56.54
2023-09-04T18:44:59.009Z,57.36
2023-09-04T18:47:30.565Z,57.79
2023-09-04T18:50:02.405Z,58.48
2023-09-04T18:52:33.964Z,58.56
2023-09-04T18:55:05.494Z,60.27
2023-09-04T18:57:37.026Z,60.92
2023-09-04T19:00:08.565Z,60.69
2023-09-04T19:02:40.188Z,59.51
2023-09-04T19:05:12.114Z,61.11
2023-09-04T19:07:43.761Z,60.96
2023-09-04T19:10:15.667Z,60.37
2023-09-04T19:12:47.777Z,61.73
2023-09-04T19:15:19.346Z,62.32
2023-09-04T19:17:51.151Z,61.25
2023-09-04T19:20:22.661Z,61.91
2023-09-04T19:22:54.498Z,63.00
2023-09-04T19:25:26.006Z,63.05
2023-09-04T19:27:58.315Z,62.94
2023-09-04T19:30:29.824Z,62.89
2023-09-04T19:33:01.687Z,62.96
2023-09-04T19:35:35.805Z,63.17
2023-09-04T19:38:07.886Z,63.53
2023-09-04T19:40:39.386Z,64.59
2023-09-04T19:43:11.176Z,65.35
2023-09-04T19:45:42.725Z,64.58
2023-09-04T19:48:14.577Z,64.15
2023-09-04T19:50:46.102Z,64.63
2023-09-04T19:53:18.225Z,66.30
2023-09-04T19:55:49.754Z,63.67
2023-09-04T19:58:21.416Z,63.60
2023-09-04T20:00:52.937Z,64.75
2023-09-04T20:03:24.972Z,66.16
2023-09-04T20:05:56.606Z,64.82
2023-09-04T20:08:28.367Z,63.99
2023-09-04T20:10:59.908Z,64.38
2023-09-04T20:13:31.921Z,64.50
2023-09-04T20:16:03.450Z,65.15
2023-09-04T20:18:35.177Z,66.69
2023-09-04T20:21:06.688Z,65.90
2023-09-04T20:23:38.453Z,65.79
2023-09-04T20:26:09.965Z,65.50
2023-09-04T20:28:41.823Z,66.78
2023-09-04T20:31:13.357Z,66.03
2023-09-04T20:33:45.182Z,65.55
2023-09-04T20:36:16.685Z,67.50
2023-09-04T20:38:48.446Z,66.85
2023-09-04T20:41:19.948Z,67.23
2023-09-04T20:43:51.782Z,66.04
2023-09-04T20:46:23.301Z,66.66
2023-09-04T20:48:55.122Z,65.95
2023-09-04T20:51:26.676Z,66.50
2023-09-04T20:53:58.710Z,67.80
2023-09-04T20:56:30.205Z,68.22
2023-09-04T20:59:02.121Z,69.55
2023-09-04T21:01:33.745Z,69.36
2023-09-04T21:04:05.350Z,69.46
2023-09-04T21:06:36.836Z,69.11
2023-09-04T21:09:08.630Z,69.56
2023-09-04T21:11:40.124Z,69.88
2023-09-04T21:14:11.993Z,70.67
2023-09-04T21:16:43.514Z,70.26
2023-09-04T21:19:15.256Z,70.79
2023-09-04T21:21:46.739Z,70.60
2023-09-04T21:24:19.946Z,69.74
2023-09-04T21:26:51.643Z,69.88
2023-09-04T21:29:23.344Z,70.67
2023-09-04T21:31:54.836Z,72.39
2023-09-04T21:34:26.441Z,72.21
2023-09-04T21:36:57.935Z,72.81
2023-09-04T21:39:29.771Z,70.93
2023-09-04T21:42:01.278Z,70.94
2023-09-04T21:44:32.809Z,70.62
2023-09-04T21:47:04.318Z,70.59
2023-09-04T21:49:36.141Z,71.14
2023-09-04T21:52:07.639Z,73.22
2023-09-04T21:54:39.482Z,73.12
2023-09-04T21:57:10.967Z,72.96
2023-09-04T21:59:43.013Z,73.58
2023-09-04T22:02:14.926Z,72.90
2023-09-04T22:04:46.777Z,73.13
2023-09-04T22:07:18.803Z,73.10
2023-09-04T22:09:50.294Z,73.18
2023-09-04T22:12:21.973Z,73.25
2023-09-04T22:14:53.467Z,72.97
2023-09-04T22:17:25.351Z,73.61
2023-09-04T22:19:56.858Z,73.81
2023-09-04T22:22:28.647Z,73.49
2023-09-04T22:25:00.135Z,74.73
2023-09-04T22:27:31.668Z,73.71
2023-09-04T22:30:03.186Z,73.70
2023-09-04T22:32:35.263Z,73.45
2023-09-04T22:35:06.790Z,73.69
2023-09-04T22:37:38.270Z,74.97
2023-09-04T22:40:09.787Z,74.49
2023-09-04T22:42:41.286Z,75.36
2023-09-04T22:45:13.134Z,75.28
2023-09-04T22:47:44.679Z,75.42
2023-09-04T22:50:16.396Z,75.50
2023-09-04T22:53:00.233Z,74.85
2023-09-04T22:55:38.149Z,75.53
2023-09-04T22:58:09.658Z,76.03
2023-09-04T23:00:41.599Z,76.40
2023-09-04T23:03:13.471Z,76.87
2023-09-04T23:05:44.952Z,77.49
2023-09-04T23:08:16.482Z,77.09
2023-09-04T23:10:48.045Z,77.33
2023-09-04T23:13:19.871Z,77.57
2023-09-04T23:15:51.359Z,78.00
2023-09-04T23:18:23.058Z,78.02
2023-09-04T23:20:54.534Z,77.90
2023-09-04T23:23:26.782Z,78.46
2023-09-04T23:25:58.548Z,78.22
2023-09-04T23:28:30.360Z,78.64
2023-09-04T23:31:02.428Z,78.31
2023-09-04T23:33:33.934Z,78.38
2023-09-04T23:36:05.451Z,78.47
2023-09-04T23:38:36.945Z,79.11
2023-09-04T23:41:08.776Z,79.09
2023-09-04T23:43:40.271Z,79.13
2023-09-04T23:46:11.857Z,79.13
2023-09-04T23:48:43.389Z,79.13
2023-09-04T23:51:15.336Z,80.02
2023-09-04T23:53:46.824Z,80.55
2023-09-04T23:56:18.907Z,81.17
2023-09-04T23:58:50.692Z,80.80
